Search for airport 
image banner adimage banner adimage banner ad
image banner ad

01PA - Pine Heliport

Located in Mars, United States

ICAO - 01PA, IATA -

Data provided by Airmate  

General information

Coordinates: N40°21'45" W79°9'56"
Elevation is 1500 feet MSL.
 
View others Airports in Pennsylvania

Operational data

Special qualification required
Current time UTC:
Current local time:
Weather at : KLBE - Arnold Palmer Rgnl ( 23 km )
METAR: KLBE 091350Z 06009KT 5SM -RA BR FEW013 SCT030 OVC045 06/05 A3002
TAF: KLBE 091120Z 0912/1012 00000KT P6SM -RA OVC040 FM091500 10003KT 4SM -RA OVC030 FM091700 09006KT 3SM RA OVC009 FM092100 16005KT 4SM SHRA BKN012 FM100200 01004KT 5SM -SHRA BR OVC005 FM100700 32004KT P6SM BKN010
View NOTAMs / SUP AIP / TFR affecting this airport [VIEW]
Communications frequencies: [VIEW]

Runways:

RWY identifierQFULength (ft)Width (ft)SurfaceLDA (ft)
141200100GRASS
321200100GRASS

Airport contact information

Address: Mars United States

Satellite view of 01PA